createdAt,value
2019-02-19T00:00:59.824Z,87.09
2019-02-19T00:06:17.239Z,87.22
2019-02-19T00:11:35.625Z,86.96
2019-02-19T00:16:52.891Z,86.73
2019-02-19T00:22:12.439Z,86.56
2019-02-19T00:27:30.308Z,86.84
2019-02-19T00:32:47.570Z,86.94
2019-02-19T00:38:06.355Z,86.85
2019-02-19T00:43:29.131Z,87.07
2019-02-19T00:48:47.259Z,86.80
2019-02-19T00:54:04.591Z,87.35
2019-02-19T00:59:22.015Z,87.28
2019-02-19T01:04:39.530Z,86.70
2019-02-19T01:09:57.166Z,87.17
2019-02-19T01:15:14.619Z,87.50
2019-02-19T01:20:31.860Z,87.44
2019-02-19T01:25:49.811Z,86.96
2019-02-19T01:31:07.478Z,87.29
2019-02-19T01:36:25.015Z,87.60
2019-02-19T01:41:42.363Z,87.22
2019-02-19T01:46:59.994Z,87.07
2019-02-19T01:52:18.270Z,87.44
2019-02-19T01:57:36.003Z,87.89
2019-02-19T02:02:54.322Z,87.29
2019-02-19T02:08:11.859Z,86.78
2019-02-19T02:13:30.052Z,87.67
2019-02-19T02:18:47.754Z,86.85
2019-02-19T02:24:05.870Z,86.98
2019-02-19T02:29:24.192Z,87.06
2019-02-19T02:34:41.471Z,86.81
2019-02-19T02:39:59.150Z,86.43
2019-02-19T02:45:17.142Z,86.35
2019-02-19T02:50:34.695Z,86.43
2019-02-19T02:55:53.471Z,86.32
2019-02-19T03:01:11.301Z,87.04
2019-02-19T03:07:03.246Z,87.07
2019-02-19T03:12:20.958Z,87.56
2019-02-19T03:17:38.641Z,87.46
2019-02-19T03:22:56.546Z,87.07
2019-02-19T03:28:13.995Z,86.71
2019-02-19T03:33:31.336Z,86.84
2019-02-19T03:38:48.923Z,87.17
2019-02-19T03:44:07.155Z,87.50
2019-02-19T03:49:24.526Z,87.64
2019-02-19T03:54:43.048Z,86.99
2019-02-19T04:00:00.401Z,87.00
2019-02-19T04:05:17.786Z,86.84
2019-02-19T04:10:38.263Z,86.58
2019-02-19T04:15:55.996Z,87.04
2019-02-19T04:21:13.484Z,87.28
2019-02-19T04:26:31.767Z,87.15
2019-02-19T04:31:48.993Z,87.12
2019-02-19T04:37:06.273Z,87.42
2019-02-19T04:42:24.096Z,87.22
2019-02-19T04:47:43.684Z,87.00
2019-02-19T04:53:01.915Z,87.18
2019-02-19T04:58:21.006Z,87.20
2019-02-19T05:03:38.486Z,87.13
2019-02-19T05:08:56.296Z,87.01
2019-02-19T05:14:13.898Z,86.97
2019-02-19T05:19:31.688Z,86.84
2019-02-19T05:24:49.997Z,86.68
2019-02-19T05:30:07.623Z,86.51
2019-02-19T05:35:25.515Z,86.34
2019-02-19T05:40:43.484Z,86.52
2019-02-19T05:46:02.485Z,86.52
2019-02-19T05:51:20.115Z,86.18
2019-02-19T05:56:37.595Z,86.10
2019-02-19T06:01:56.017Z,86.39
2019-02-19T06:07:13.406Z,86.25
2019-02-19T06:12:30.959Z,86.24
2019-02-19T06:17:48.245Z,86.32
2019-02-19T06:23:06.000Z,86.45
2019-02-19T06:28:23.559Z,86.12
2019-02-19T06:33:41.049Z,86.00
2019-02-19T06:38:58.288Z,85.82
2019-02-19T06:44:15.920Z,85.72
2019-02-19T06:49:33.273Z,85.69
2019-02-19T06:54:51.257Z,85.70
2019-02-19T07:00:09.355Z,85.93
2019-02-19T07:05:26.460Z,85.75
2019-02-19T07:10:44.478Z,85.64
2019-02-19T07:16:02.470Z,85.92
2019-02-19T07:21:20.603Z,85.71
2019-02-19T07:26:39.731Z,85.63
2019-02-19T07:31:57.287Z,85.40
2019-02-19T07:37:15.734Z,85.54
2019-02-19T07:42:32.876Z,85.55
2019-02-19T07:47:50.224Z,85.03
2019-02-19T07:53:08.336Z,84.75
2019-02-19T07:58:25.503Z,84.48
2019-02-19T08:03:43.432Z,84.40
2019-02-19T08:09:01.486Z,83.63
2019-02-19T08:14:19.124Z,83.20
2019-02-19T08:19:38.508Z,82.75
2019-02-19T08:24:55.909Z,82.56
2019-02-19T08:30:13.560Z,82.13
2019-02-19T08:35:30.977Z,80.85
2019-02-19T08:40:48.915Z,80.79
2019-02-19T08:46:06.599Z,78.78
2019-02-19T08:51:24.566Z,72.41
2019-02-19T08:56:42.385Z,66.02
2019-02-19T09:01:59.495Z,65.14
2019-02-19T09:07:17.509Z,59.55
2019-02-19T09:12:35.286Z,61.31
2019-02-19T09:17:52.780Z,55.03
2019-02-19T09:23:10.456Z,54.93
2019-02-19T09:28:28.726Z,54.28
2019-02-19T09:33:46.746Z,52.29
2019-02-19T09:39:05.234Z,52.49
2019-02-19T09:44:22.568Z,51.98
2019-02-19T09:49:40.306Z,51.22
2019-02-19T09:54:58.861Z,52.09
2019-02-19T10:00:17.191Z,50.20
2019-02-19T10:05:34.951Z,47.90
2019-02-19T10:10:52.882Z,50.84
2019-02-19T10:16:10.809Z,47.62
2019-02-19T10:21:28.477Z,47.00
2019-02-19T10:26:46.183Z,47.03
2019-02-19T10:32:03.726Z,45.92
2019-02-19T10:37:21.412Z,44.90
2019-02-19T10:42:39.193Z,46.37
2019-02-19T10:47:56.687Z,43.68
2019-02-19T10:53:14.494Z,43.57
2019-02-19T10:58:32.569Z,44.19
2019-02-19T11:03:50.795Z,42.79
2019-02-19T11:09:08.419Z,37.23
2019-02-19T11:14:26.197Z,36.73
2019-02-19T11:19:44.075Z,37.62
2019-02-19T11:25:02.038Z,37.33
2019-02-19T11:30:20.437Z,37.62
2019-02-19T11:35:37.766Z,35.44
2019-02-19T11:40:55.812Z,36.44
2019-02-19T11:46:13.630Z,32.79
2019-02-19T11:51:31.576Z,32.59
2019-02-19T11:56:49.999Z,28.84
2019-02-19T12:02:11.469Z,27.71
2019-02-19T12:07:29.129Z,28.02
2019-02-19T12:12:47.692Z,24.58
2019-02-19T12:18:05.486Z,24.18
2019-02-19T12:23:23.337Z,26.29
2019-02-19T12:28:40.789Z,23.84
2019-02-19T12:33:59.511Z,22.92
2019-02-19T12:39:17.261Z,24.38
2019-02-19T12:44:34.618Z,25.78
2019-02-19T12:49:52.796Z,26.86
2019-02-19T12:55:10.947Z,28.86
2019-02-19T13:00:28.829Z,28.16
2019-02-19T13:05:46.293Z,27.22
2019-02-19T13:11:04.017Z,25.30
2019-02-19T13:16:21.829Z,26.02
2019-02-19T13:21:40.088Z,27.13
2019-02-19T13:26:58.670Z,28.06
2019-02-19T13:32:16.505Z,25.97
2019-02-19T13:37:34.302Z,24.91
2019-02-19T13:42:51.616Z,26.04
2019-02-19T13:48:09.858Z,26.35
2019-02-19T13:53:49.237Z,26.08
2019-02-19T13:59:07.249Z,26.56
2019-02-19T14:04:25.021Z,25.42
2019-02-19T14:09:42.277Z,26.73
2019-02-19T14:15:05.711Z,28.17
2019-02-19T14:21:00.381Z,27.69
2019-02-19T14:26:37.028Z,27.23
2019-02-19T14:32:14.332Z,26.36
2019-02-19T14:37:51.000Z,28.34
2019-02-19T14:43:27.147Z,29.15
2019-02-19T14:49:17.273Z,29.17
2019-02-19T14:55:07.241Z,30.13
2019-02-19T15:00:43.081Z,29.79
2019-02-19T15:06:26.576Z,31.62
2019-02-19T15:11:52.491Z,34.49
2019-02-19T15:17:25.411Z,38.71
2019-02-19T15:23:00.857Z,40.83
2019-02-19T15:28:40.725Z,44.08
2019-02-19T15:34:16.687Z,43.99
2019-02-19T15:40:05.858Z,45.37
2019-02-19T15:45:40.779Z,46.83
2019-02-19T15:51:11.050Z,49.66
2019-02-19T15:56:47.166Z,47.47
2019-02-19T16:02:18.463Z,48.24
2019-02-19T16:07:46.658Z,48.16
2019-02-19T16:13:35.312Z,49.34
2019-02-19T16:19:06.016Z,52.29
2019-02-19T16:24:50.104Z,50.86
2019-02-19T16:30:15.723Z,53.83
2019-02-19T16:35:40.046Z,54.06
2019-02-19T16:41:14.882Z,54.02
2019-02-19T16:46:41.768Z,53.25
2019-02-19T16:52:24.286Z,54.75
2019-02-19T16:57:53.248Z,56.00
2019-02-19T17:03:30.163Z,58.94
2019-02-19T17:09:06.987Z,60.36
2019-02-19T17:14:40.025Z,57.93
2019-02-19T17:20:28.952Z,58.72
2019-02-19T17:25:46.485Z,58.37
2019-02-19T17:31:25.898Z,57.86
2019-02-19T17:36:52.607Z,62.45
2019-02-19T17:42:23.068Z,62.34
2019-02-19T17:48:08.661Z,67.88
2019-02-19T17:53:48.012Z,66.95
2019-02-19T17:59:23.738Z,67.61
2019-02-19T18:04:56.047Z,69.06
2019-02-19T18:10:35.543Z,70.58
2019-02-19T18:16:11.850Z,71.81
2019-02-19T18:21:30.016Z,73.41
2019-02-19T18:26:48.158Z,70.25
2019-02-19T18:32:05.967Z,72.58
2019-02-19T18:37:23.598Z,72.11
2019-02-19T18:42:42.100Z,74.27
2019-02-19T18:48:00.040Z,74.16
2019-02-19T18:53:17.501Z,76.79
2019-02-19T18:58:35.661Z,76.14
2019-02-19T19:03:53.190Z,75.53
2019-02-19T19:09:11.235Z,75.16
2019-02-19T19:14:29.991Z,75.74
2019-02-19T19:19:48.275Z,77.54
2019-02-19T19:25:06.223Z,78.13
2019-02-19T19:30:23.766Z,78.19
2019-02-19T19:35:42.791Z,78.45
2019-02-19T19:41:00.610Z,78.91
2019-02-19T19:46:19.802Z,78.90
2019-02-19T19:51:38.280Z,78.63
2019-02-19T19:56:58.081Z,78.27
2019-02-19T20:02:19.420Z,79.58
2019-02-19T20:07:35.352Z,78.81
2019-02-19T20:12:52.991Z,80.20
2019-02-19T20:18:11.737Z,80.11
2019-02-19T20:23:29.417Z,80.07
2019-02-19T20:28:46.958Z,80.16
2019-02-19T20:34:06.985Z,80.00
2019-02-19T20:39:26.099Z,80.27
2019-02-19T20:44:45.926Z,79.07
2019-02-19T20:50:03.994Z,80.17
2019-02-19T20:55:22.158Z,79.94
2019-02-19T21:00:41.228Z,81.20
2019-02-19T21:05:59.232Z,80.04
2019-02-19T21:11:16.894Z,80.75
2019-02-19T21:16:35.257Z,80.02
2019-02-19T21:21:53.024Z,80.07
2019-02-19T21:27:11.705Z,78.74
2019-02-19T21:32:29.611Z,79.02
2019-02-19T21:37:47.926Z,79.02
2019-02-19T21:43:05.735Z,79.65
2019-02-19T21:48:24.396Z,78.83
2019-02-19T21:53:44.347Z,79.92
2019-02-19T21:59:03.176Z,79.20
2019-02-19T22:04:20.935Z,79.63
2019-02-19T22:09:38.640Z,79.01
2019-02-19T22:14:56.862Z,78.99
2019-02-19T22:20:30.573Z,79.34
2019-02-19T22:25:48.032Z,78.61
2019-02-19T22:31:06.127Z,79.23
2019-02-19T22:36:24.461Z,80.01
2019-02-19T22:41:42.031Z,80.04
2019-02-19T22:46:59.398Z,80.07
2019-02-19T22:52:17.228Z,79.36
2019-02-19T22:57:35.576Z,78.39
2019-02-19T23:02:53.340Z,77.88
2019-02-19T23:08:12.963Z,79.11
2019-02-19T23:13:30.221Z,78.48
2019-02-19T23:18:47.425Z,78.01
2019-02-19T23:24:05.524Z,77.74
2019-02-19T23:29:23.797Z,77.79
2019-02-19T23:34:41.697Z,77.58
2019-02-19T23:39:59.220Z,78.59
2019-02-19T23:45:17.706Z,80.15
2019-02-19T23:50:36.317Z,79.91
2019-02-19T23:55:53.981Z,78.69
